sensor_id;sensor_type;location;lat;lon;timestamp;P1;durP1;ratioP1;P2;durP2;ratioP2
60257;SDS011;46115;44.484;11.314;2024-01-11T00:06:53;26.33;;;16.87;;
60257;SDS011;46115;44.484;11.314;2024-01-11T00:10:57;25.27;;;15.70;;
60257;SDS011;46115;44.484;11.314;2024-01-11T00:15:00;27.08;;;16.58;;
60257;SDS011;46115;44.484;11.314;2024-01-11T00:19:02;26.30;;;16.38;;
60257;SDS011;46115;44.484;11.314;2024-01-11T00:27:08;27.73;;;17.67;;
60257;SDS011;46115;44.484;11.314;2024-01-11T00:31:11;25.83;;;16.60;;
60257;SDS011;46115;44.484;11.314;2024-01-11T00:35:15;24.38;;;16.17;;
60257;SDS011;46115;44.484;11.314;2024-01-11T00:39:17;22.75;;;15.68;;
60257;SDS011;46115;44.484;11.314;2024-01-11T00:47:23;25.85;;;17.25;;
60257;SDS011;46115;44.484;11.314;2024-01-11T00:51:26;24.95;;;16.63;;
60257;SDS011;46115;44.484;11.314;2024-01-11T00:55:28;25.90;;;16.58;;
60257;SDS011;46115;44.484;11.314;2024-01-11T00:59:32;24.48;;;16.45;;
60257;SDS011;46115;44.484;11.314;2024-01-11T01:03:35;27.98;;;17.30;;
60257;SDS011;46115;44.484;11.314;2024-01-11T01:07:37;27.45;;;16.77;;
60257;SDS011;46115;44.484;11.314;2024-01-11T01:11:40;28.00;;;17.50;;
60257;SDS011;46115;44.484;11.314;2024-01-11T01:15:44;24.15;;;16.67;;
60257;SDS011;46115;44.484;11.314;2024-01-11T01:19:46;25.67;;;17.45;;
60257;SDS011;46115;44.484;11.314;2024-01-11T01:23:49;27.30;;;17.65;;
60257;SDS011;46115;44.484;11.314;2024-01-11T01:27:51;27.08;;;17.52;;
60257;SDS011;46115;44.484;11.314;2024-01-11T01:31:55;25.52;;;17.75;;
60257;SDS011;46115;44.484;11.314;2024-01-11T01:35:57;28.15;;;16.92;;
60257;SDS011;46115;44.484;11.314;2024-01-11T01:40:00;25.25;;;17.35;;
60257;SDS011;46115;44.484;11.314;2024-01-11T01:44:03;27.05;;;17.02;;
60257;SDS011;46115;44.484;11.314;2024-01-11T01:48:07;25.88;;;16.20;;
60257;SDS011;46115;44.484;11.314;2024-01-11T01:52:10;25.83;;;16.67;;
60257;SDS011;46115;44.484;11.314;2024-01-11T01:56:15;26.80;;;16.48;;
60257;SDS011;46115;44.484;11.314;2024-01-11T02:00:18;24.25;;;16.23;;
60257;SDS011;46115;44.484;11.314;2024-01-11T02:04:23;24.27;;;16.33;;
60257;SDS011;46115;44.484;11.314;2024-01-11T02:08:25;23.80;;;15.70;;
60257;SDS011;46115;44.484;11.314;2024-01-11T02:12:30;25.50;;;16.20;;
60257;SDS011;46115;44.484;11.314;2024-01-11T02:16:33;28.88;;;16.08;;
60257;SDS011;46115;44.484;11.314;2024-01-11T02:20:36;26.98;;;16.67;;
60257;SDS011;46115;44.484;11.314;2024-01-11T02:24:40;25.98;;;16.08;;
60257;SDS011;46115;44.484;11.314;2024-01-11T02:28:43;27.30;;;17.20;;
60257;SDS011;46115;44.484;11.314;2024-01-11T02:32:47;25.70;;;16.70;;
60257;SDS011;46115;44.484;11.314;2024-01-11T02:36:51;27.10;;;17.40;;
60257;SDS011;46115;44.484;11.314;2024-01-11T02:40:55;24.70;;;16.10;;
60257;SDS011;46115;44.484;11.314;2024-01-11T02:44:59;27.48;;;16.85;;
60257;SDS011;46115;44.484;11.314;2024-01-11T02:49:02;25.50;;;17.17;;
60257;SDS011;46115;44.484;11.314;2024-01-11T02:53:04;25.70;;;16.65;;
60257;SDS011;46115;44.484;11.314;2024-01-11T02:57:08;26.42;;;16.50;;
60257;SDS011;46115;44.484;11.314;2024-01-11T03:01:11;25.55;;;16.80;;
60257;SDS011;46115;44.484;11.314;2024-01-11T03:09:16;26.98;;;17.20;;
60257;SDS011;46115;44.484;11.314;2024-01-11T03:13:19;28.58;;;17.08;;
60257;SDS011;46115;44.484;11.314;2024-01-11T03:17:22;32.60;;;18.75;;
60257;SDS011;46115;44.484;11.314;2024-01-11T03:21:24;27.02;;;18.42;;
60257;SDS011;46115;44.484;11.314;2024-01-11T03:25:27;27.23;;;17.83;;
60257;SDS011;46115;44.484;11.314;2024-01-11T03:29:32;27.45;;;18.15;;
60257;SDS011;46115;44.484;11.314;2024-01-11T03:33:35;29.67;;;19.30;;
60257;SDS011;46115;44.484;11.314;2024-01-11T03:37:38;30.38;;;20.05;;
60257;SDS011;46115;44.484;11.314;2024-01-11T03:41:42;31.08;;;20.55;;
60257;SDS011;46115;44.484;11.314;2024-01-11T03:45:47;31.10;;;20.65;;
60257;SDS011;46115;44.484;11.314;2024-01-11T03:49:49;33.30;;;21.50;;
60257;SDS011;46115;44.484;11.314;2024-01-11T03:53:52;37.65;;;22.10;;
60257;SDS011;46115;44.484;11.314;2024-01-11T03:57:54;31.63;;;21.60;;
60257;SDS011;46115;44.484;11.314;2024-01-11T04:01:58;33.92;;;22.10;;
60257;SDS011;46115;44.484;11.314;2024-01-11T04:06:01;32.42;;;21.83;;
60257;SDS011;46115;44.484;11.314;2024-01-11T04:10:04;31.92;;;21.90;;
60257;SDS011;46115;44.484;11.314;2024-01-11T04:14:07;32.63;;;22.45;;
60257;SDS011;46115;44.484;11.314;2024-01-11T04:18:11;30.17;;;21.08;;
60257;SDS011;46115;44.484;11.314;2024-01-11T04:22:13;33.40;;;22.65;;
60257;SDS011;46115;44.484;11.314;2024-01-11T04:26:16;33.80;;;23.00;;
60257;SDS011;46115;44.484;11.314;2024-01-11T04:30:18;31.83;;;21.73;;
60257;SDS011;46115;44.484;11.314;2024-01-11T04:34:22;33.10;;;22.85;;
60257;SDS011;46115;44.484;11.314;2024-01-11T04:38:24;30.98;;;22.23;;
60257;SDS011;46115;44.484;11.314;2024-01-11T04:42:27;36.03;;;23.38;;
60257;SDS011;46115;44.484;11.314;2024-01-11T04:46:29;35.00;;;23.08;;
60257;SDS011;46115;44.484;11.314;2024-01-11T04:50:33;34.42;;;22.33;;
60257;SDS011;46115;44.484;11.314;2024-01-11T04:54:36;30.08;;;21.38;;
60257;SDS011;46115;44.484;11.314;2024-01-11T04:58:39;36.08;;;23.77;;
60257;SDS011;46115;44.484;11.314;2024-01-11T05:02:42;32.38;;;22.05;;
60257;SDS011;46115;44.484;11.314;2024-01-11T05:06:46;33.33;;;21.55;;
60257;SDS011;46115;44.484;11.314;2024-01-11T05:10:48;34.30;;;21.65;;
60257;SDS011;46115;44.484;11.314;2024-01-11T05:14:51;33.20;;;22.30;;
60257;SDS011;46115;44.484;11.314;2024-01-11T05:18:55;32.92;;;21.20;;
60257;SDS011;46115;44.484;11.314;2024-01-11T05:22:59;32.25;;;21.55;;
60257;SDS011;46115;44.484;11.314;2024-01-11T05:27:02;31.65;;;21.25;;
60257;SDS011;46115;44.484;11.314;2024-01-11T05:31:05;34.00;;;21.55;;
60257;SDS011;46115;44.484;11.314;2024-01-11T05:35:10;31.55;;;21.17;;
60257;SDS011;46115;44.484;11.314;2024-01-11T05:43:39;33.15;;;21.80;;
60257;SDS011;46115;44.484;11.314;2024-01-11T05:47:42;30.30;;;20.58;;
60257;SDS011;46115;44.484;11.314;2024-01-11T05:51:44;31.85;;;20.90;;
60257;SDS011;46115;44.484;11.314;2024-01-11T05:55:48;31.27;;;20.42;;
60257;SDS011;46115;44.484;11.314;2024-01-11T05:59:51;34.05;;;21.70;;
60257;SDS011;46115;44.484;11.314;2024-01-11T06:03:53;33.33;;;20.63;;
60257;SDS011;46115;44.484;11.314;2024-01-11T06:11:59;31.08;;;21.55;;
60257;SDS011;46115;44.484;11.314;2024-01-11T06:16:02;31.35;;;21.38;;
60257;SDS011;46115;44.484;11.314;2024-01-11T06:20:04;31.63;;;20.45;;
60257;SDS011;46115;44.484;11.314;2024-01-11T06:24:07;31.63;;;20.95;;
60257;SDS011;46115;44.484;11.314;2024-01-11T06:28:11;32.85;;;20.98;;
60257;SDS011;46115;44.484;11.314;2024-01-11T06:32:14;31.50;;;21.00;;
60257;SDS011;46115;44.484;11.314;2024-01-11T06:40:18;33.55;;;21.98;;
60257;SDS011;46115;44.484;11.314;2024-01-11T06:44:22;31.38;;;22.15;;
60257;SDS011;46115;44.484;11.314;2024-01-11T06:48:25;33.45;;;21.23;;
60257;SDS011;46115;44.484;11.314;2024-01-11T06:52:27;32.38;;;21.30;;
60257;SDS011;46115;44.484;11.314;2024-01-11T06:56:30;31.58;;;20.88;;
60257;SDS011;46115;44.484;11.314;2024-01-11T07:00:36;30.98;;;21.02;;
60257;SDS011;46115;44.484;11.314;2024-01-11T07:04:44;34.88;;;20.50;;
60257;SDS011;46115;44.484;11.314;2024-01-11T07:08:46;34.08;;;21.23;;
60257;SDS011;46115;44.484;11.314;2024-01-11T07:12:49;29.80;;;20.70;;
60257;SDS011;46115;44.484;11.314;2024-01-11T07:16:53;36.80;;;22.35;;
60257;SDS011;46115;44.484;11.314;2024-01-11T07:20:56;33.95;;;21.35;;
60257;SDS011;46115;44.484;11.314;2024-01-11T07:24:59;38.63;;;22.52;;
60257;SDS011;46115;44.484;11.314;2024-01-11T07:29:01;35.90;;;21.40;;
60257;SDS011;46115;44.484;11.314;2024-01-11T07:33:06;35.67;;;22.42;;
60257;SDS011;46115;44.484;11.314;2024-01-11T07:37:10;31.00;;;21.75;;
60257;SDS011;46115;44.484;11.314;2024-01-11T07:41:12;33.22;;;20.92;;
60257;SDS011;46115;44.484;11.314;2024-01-11T07:45:15;32.78;;;21.38;;
60257;SDS011;46115;44.484;11.314;2024-01-11T07:49:18;33.55;;;21.48;;
60257;SDS011;46115;44.484;11.314;2024-01-11T07:53:21;32.10;;;21.33;;
60257;SDS011;46115;44.484;11.314;2024-01-11T07:57:24;32.72;;;21.80;;
60257;SDS011;46115;44.484;11.314;2024-01-11T08:01:26;32.13;;;21.38;;
60257;SDS011;46115;44.484;11.314;2024-01-11T08:05:30;35.83;;;22.58;;
60257;SDS011;46115;44.484;11.314;2024-01-11T08:09:33;32.75;;;21.67;;
60257;SDS011;46115;44.484;11.314;2024-01-11T08:13:35;34.25;;;21.33;;
60257;SDS011;46115;44.484;11.314;2024-01-11T08:17:38;35.13;;;21.55;;
60257;SDS011;46115;44.484;11.314;2024-01-11T08:21:42;32.25;;;21.58;;
60257;SDS011;46115;44.484;11.314;2024-01-11T08:25:45;36.33;;;22.05;;
60257;SDS011;46115;44.484;11.314;2024-01-11T08:29:47;31.30;;;21.17;;
60257;SDS011;46115;44.484;11.314;2024-01-11T08:33:50;32.30;;;21.33;;
60257;SDS011;46115;44.484;11.314;2024-01-11T08:37:54;34.40;;;21.50;;
60257;SDS011;46115;44.484;11.314;2024-01-11T08:41:56;33.40;;;21.02;;
60257;SDS011;46115;44.484;11.314;2024-01-11T08:50:03;29.50;;;20.75;;
60257;SDS011;46115;44.484;11.314;2024-01-11T08:54:08;33.08;;;21.45;;
60257;SDS011;46115;44.484;11.314;2024-01-11T08:58:12;31.25;;;19.80;;
60257;SDS011;46115;44.484;11.314;2024-01-11T09:06:16;31.63;;;20.52;;
60257;SDS011;46115;44.484;11.314;2024-01-11T09:10:20;31.33;;;20.63;;
60257;SDS011;46115;44.484;11.314;2024-01-11T09:14:23;29.52;;;19.58;;
60257;SDS011;46115;44.484;11.314;2024-01-11T09:18:25;33.25;;;21.42;;
60257;SDS011;46115;44.484;11.314;2024-01-11T09:26:31;31.00;;;20.45;;
60257;SDS011;46115;44.484;11.314;2024-01-11T09:30:34;28.95;;;20.33;;
60257;SDS011;46115;44.484;11.314;2024-01-11T09:34:37;29.15;;;19.48;;
60257;SDS011;46115;44.484;11.314;2024-01-11T09:38:39;30.58;;;20.20;;
60257;SDS011;46115;44.484;11.314;2024-01-11T09:42:43;27.05;;;18.40;;
60257;SDS011;46115;44.484;11.314;2024-01-11T09:46:46;30.63;;;19.60;;
60257;SDS011;46115;44.484;11.314;2024-01-11T09:50:49;29.77;;;19.02;;
60257;SDS011;46115;44.484;11.314;2024-01-11T09:54:53;31.63;;;18.77;;
60257;SDS011;46115;44.484;11.314;2024-01-11T09:58:57;30.02;;;19.15;;
60257;SDS011;46115;44.484;11.314;2024-01-11T10:02:59;30.67;;;18.30;;
60257;SDS011;46115;44.484;11.314;2024-01-11T10:07:03;30.33;;;18.73;;
60257;SDS011;46115;44.484;11.314;2024-01-11T10:11:07;28.60;;;17.77;;
60257;SDS011;46115;44.484;11.314;2024-01-11T10:15:11;32.00;;;19.80;;
60257;SDS011;46115;44.484;11.314;2024-01-11T10:19:14;28.55;;;18.50;;
60257;SDS011;46115;44.484;11.314;2024-01-11T10:23:17;26.35;;;17.83;;
60257;SDS011;46115;44.484;11.314;2024-01-11T10:27:20;27.90;;;16.52;;
60257;SDS011;46115;44.484;11.314;2024-01-11T10:31:29;25.75;;;16.63;;
60257;SDS011;46115;44.484;11.314;2024-01-11T10:35:32;25.23;;;16.15;;
60257;SDS011;46115;44.484;11.314;2024-01-11T10:39:34;25.38;;;16.08;;
60257;SDS011;46115;44.484;11.314;2024-01-11T10:43:38;26.60;;;16.40;;
60257;SDS011;46115;44.484;11.314;2024-01-11T10:47:44;26.63;;;15.38;;
60257;SDS011;46115;44.484;11.314;2024-01-11T10:51:59;26.17;;;16.30;;
60257;SDS011;46115;44.484;11.314;2024-01-11T10:56:04;26.50;;;16.48;;
60257;SDS011;46115;44.484;11.314;2024-01-11T11:00:08;23.15;;;14.73;;
60257;SDS011;46115;44.484;11.314;2024-01-11T11:04:14;22.95;;;14.68;;
60257;SDS011;46115;44.484;11.314;2024-01-11T11:08:18;24.80;;;15.10;;
60257;SDS011;46115;44.484;11.314;2024-01-11T11:12:21;25.05;;;14.68;;
60257;SDS011;46115;44.484;11.314;2024-01-11T11:16:25;21.92;;;13.85;;
60257;SDS011;46115;44.484;11.314;2024-01-11T11:20:29;21.52;;;13.50;;
60257;SDS011;46115;44.484;11.314;2024-01-11T11:24:33;25.50;;;14.13;;
60257;SDS011;46115;44.484;11.314;2024-01-11T11:28:36;24.23;;;14.38;;
60257;SDS011;46115;44.484;11.314;2024-01-11T11:32:39;21.45;;;13.95;;
60257;SDS011;46115;44.484;11.314;2024-01-11T11:36:47;23.92;;;15.20;;
60257;SDS011;46115;44.484;11.314;2024-01-11T11:40:51;25.88;;;16.17;;
60257;SDS011;46115;44.484;11.314;2024-01-11T11:44:55;22.50;;;14.75;;
60257;SDS011;46115;44.484;11.314;2024-01-11T11:48:59;26.23;;;15.45;;
60257;SDS011;46115;44.484;11.314;2024-01-11T11:53:03;25.88;;;14.85;;
60257;SDS011;46115;44.484;11.314;2024-01-11T11:57:06;23.83;;;14.77;;
60257;SDS011;46115;44.484;11.314;2024-01-11T12:01:09;23.40;;;15.70;;
60257;SDS011;46115;44.484;11.314;2024-01-11T12:05:12;25.52;;;15.32;;
60257;SDS011;46115;44.484;11.314;2024-01-11T12:09:19;22.75;;;13.75;;
60257;SDS011;46115;44.484;11.314;2024-01-11T12:13:23;22.38;;;13.90;;
60257;SDS011;46115;44.484;11.314;2024-01-11T12:17:26;24.50;;;13.57;;
60257;SDS011;46115;44.484;11.314;2024-01-11T12:21:28;20.88;;;13.25;;
60257;SDS011;46115;44.484;11.314;2024-01-11T12:25:33;21.17;;;13.55;;
60257;SDS011;46115;44.484;11.314;2024-01-11T12:29:35;24.63;;;13.80;;
60257;SDS011;46115;44.484;11.314;2024-01-11T12:33:40;25.80;;;14.50;;
60257;SDS011;46115;44.484;11.314;2024-01-11T12:37:52;19.23;;;12.40;;
60257;SDS011;46115;44.484;11.314;2024-01-11T12:41:56;19.10;;;12.23;;
60257;SDS011;46115;44.484;11.314;2024-01-11T12:45:59;19.33;;;12.68;;
60257;SDS011;46115;44.484;11.314;2024-01-11T12:50:02;21.25;;;12.70;;
60257;SDS011;46115;44.484;11.314;2024-01-11T12:54:04;18.08;;;12.30;;
60257;SDS011;46115;44.484;11.314;2024-01-11T12:58:18;20.50;;;13.05;;
60257;SDS011;46115;44.484;11.314;2024-01-11T13:02:21;19.40;;;13.20;;
60257;SDS011;46115;44.484;11.314;2024-01-11T13:06:24;21.33;;;13.07;;
60257;SDS011;46115;44.484;11.314;2024-01-11T13:10:27;19.67;;;13.75;;
60257;SDS011;46115;44.484;11.314;2024-01-11T13:14:31;22.85;;;12.73;;
60257;SDS011;46115;44.484;11.314;2024-01-11T13:18:33;21.50;;;13.55;;
60257;SDS011;46115;44.484;11.314;2024-01-11T13:22:36;20.27;;;13.82;;
60257;SDS011;46115;44.484;11.314;2024-01-11T13:26:38;18.38;;;12.70;;
60257;SDS011;46115;44.484;11.314;2024-01-11T13:30:43;22.02;;;12.48;;
60257;SDS011;46115;44.484;11.314;2024-01-11T13:34:46;20.20;;;13.07;;
60257;SDS011;46115;44.484;11.314;2024-01-11T13:38:49;21.35;;;13.77;;
60257;SDS011;46115;44.484;11.314;2024-01-11T13:42:52;19.27;;;13.10;;
60257;SDS011;46115;44.484;11.314;2024-01-11T13:46:56;19.55;;;13.38;;
60257;SDS011;46115;44.484;11.314;2024-01-11T13:50:58;19.55;;;12.50;;
60257;SDS011;46115;44.484;11.314;2024-01-11T13:55:03;19.42;;;13.18;;
60257;SDS011;46115;44.484;11.314;2024-01-11T13:59:05;21.10;;;14.10;;
60257;SDS011;46115;44.484;11.314;2024-01-11T14:03:09;18.20;;;12.80;;
60257;SDS011;46115;44.484;11.314;2024-01-11T14:07:12;22.27;;;12.65;;
60257;SDS011;46115;44.484;11.314;2024-01-11T14:11:14;19.70;;;12.85;;
60257;SDS011;46115;44.484;11.314;2024-01-11T14:15:17;22.35;;;12.77;;
60257;SDS011;46115;44.484;11.314;2024-01-11T14:19:21;18.02;;;12.18;;
60257;SDS011;46115;44.484;11.314;2024-01-11T14:23:23;21.75;;;13.27;;
60257;SDS011;46115;44.484;11.314;2024-01-11T14:27:26;17.60;;;13.05;;
60257;SDS011;46115;44.484;11.314;2024-01-11T14:31:29;22.45;;;13.60;;
60257;SDS011;46115;44.484;11.314;2024-01-11T14:35:32;19.02;;;13.25;;
60257;SDS011;46115;44.484;11.314;2024-01-11T14:39:35;18.20;;;12.45;;
60257;SDS011;46115;44.484;11.314;2024-01-11T14:43:37;18.73;;;12.50;;
60257;SDS011;46115;44.484;11.314;2024-01-11T14:47:41;20.17;;;12.77;;
60257;SDS011;46115;44.484;11.314;2024-01-11T14:51:44;21.65;;;12.32;;
60257;SDS011;46115;44.484;11.314;2024-01-11T14:55:47;25.27;;;13.43;;
60257;SDS011;46115;44.484;11.314;2024-01-11T14:59:50;26.13;;;12.70;;
60257;SDS011;46115;44.484;11.314;2024-01-11T15:03:52;22.73;;;12.65;;
60257;SDS011;46115;44.484;11.314;2024-01-11T15:07:56;21.90;;;12.88;;
60257;SDS011;46115;44.484;11.314;2024-01-11T15:11:59;19.90;;;12.05;;
60257;SDS011;46115;44.484;11.314;2024-01-11T15:16:02;18.42;;;11.95;;
60257;SDS011;46115;44.484;11.314;2024-01-11T15:20:05;17.73;;;11.73;;
60257;SDS011;46115;44.484;11.314;2024-01-11T15:24:10;18.45;;;12.52;;
60257;SDS011;46115;44.484;11.314;2024-01-11T15:28:12;18.67;;;12.10;;
60257;SDS011;46115;44.484;11.314;2024-01-11T15:32:15;20.33;;;12.25;;
60257;SDS011;46115;44.484;11.314;2024-01-11T15:36:17;19.63;;;12.43;;
60257;SDS011;46115;44.484;11.314;2024-01-11T15:40:21;21.60;;;12.68;;
60257;SDS011;46115;44.484;11.314;2024-01-11T15:44:25;20.02;;;12.82;;
60257;SDS011;46115;44.484;11.314;2024-01-11T15:48:27;18.42;;;12.50;;
60257;SDS011;46115;44.484;11.314;2024-01-11T15:52:30;19.98;;;12.60;;
60257;SDS011;46115;44.484;11.314;2024-01-11T16:00:36;20.92;;;13.27;;
60257;SDS011;46115;44.484;11.314;2024-01-11T16:08:42;19.63;;;13.43;;
60257;SDS011;46115;44.484;11.314;2024-01-11T16:12:46;22.38;;;14.05;;
60257;SDS011;46115;44.484;11.314;2024-01-11T23:06:09;35.42;;;21.40;;
60257;SDS011;46115;44.484;11.314;2024-01-11T23:10:11;30.33;;;20.30;;
60257;SDS011;46115;44.484;11.314;2024-01-11T23:14:14;32.97;;;19.83;;
60257;SDS011;46115;44.484;11.314;2024-01-11T23:18:19;30.88;;;19.88;;
60257;SDS011;46115;44.484;11.314;2024-01-11T23:22:23;33.30;;;20.45;;
60257;SDS011;46115;44.484;11.314;2024-01-11T23:26:26;33.00;;;21.23;;
60257;SDS011;46115;44.484;11.314;2024-01-11T23:30:28;31.48;;;20.30;;
60257;SDS011;46115;44.484;11.314;2024-01-11T23:34:34;33.30;;;19.73;;
60257;SDS011;46115;44.484;11.314;2024-01-11T23:38:38;31.88;;;19.88;;
60257;SDS011;46115;44.484;11.314;2024-01-11T23:42:41;31.98;;;19.50;;
60257;SDS011;46115;44.484;11.314;2024-01-11T23:46:43;32.38;;;19.67;;
60257;SDS011;46115;44.484;11.314;2024-01-11T23:54:49;29.10;;;18.30;;
60257;SDS011;46115;44.484;11.314;2024-01-11T23:58:52;31.55;;;19.65;;
